Port Mansfield, Texas
Current Conditions -  °F | °C
As of 3:52 AM on Sunday 25 Jan 2015 (Local Time) from KHRL Reporting Station
Clear Clear  
Wind Chill:   Ceiling: Unl
Heat Index:   Visibility: 10mi
Dew Point:   Wind: 6mph
Humidity: 86%   Direction: 210°SSW
Pressure: 30.12"   Gusts: NA
Location:  26.56°N, 97.43°W
Report Text: KHRL 250952Z 21005KT 10SM CLR 08/06 A3012 RMK AO2 SLP199 T00780056
Loading
Personal Weather Stations






























Interactive Weather Map New forecast layout! Learn more

10-Day Weather Forecast

Advertisements
Track Severe Weather on mobile